createdAt,value
2022-10-22T00:01:12.202Z,83.28
2022-10-22T00:03:41.566Z,83.28
2022-10-22T00:06:09.804Z,83.57
2022-10-22T00:08:38.166Z,83.34
2022-10-22T00:11:14.532Z,83.51
2022-10-22T00:13:43.531Z,83.41
2022-10-22T00:16:12.227Z,83.58
2022-10-22T00:18:41.068Z,83.61
2022-10-22T00:21:09.343Z,83.42
2022-10-22T00:23:40.634Z,83.57
2022-10-22T00:26:09.311Z,83.47
2022-10-22T00:28:37.512Z,83.47
2022-10-22T00:31:06.220Z,83.52
2022-10-22T00:33:34.294Z,83.73
2022-10-22T00:36:02.637Z,83.68
2022-10-22T00:38:30.564Z,83.54
2022-10-22T00:40:58.633Z,83.64
2022-10-22T00:43:27.536Z,83.66
2022-10-22T00:45:55.644Z,83.67
2022-10-22T00:48:27.238Z,83.51
2022-10-22T00:50:59.725Z,83.37
2022-10-22T00:53:47.989Z,83.49
2022-10-22T00:56:17.325Z,83.45
2022-10-22T00:58:49.169Z,83.26
2022-10-22T01:01:23.087Z,83.00
2022-10-22T01:03:52.109Z,82.97
2022-10-22T01:06:30.732Z,83.03
2022-10-22T01:09:13.888Z,83.02
2022-10-22T01:12:12.870Z,82.85
2022-10-22T01:14:59.433Z,82.67
2022-10-22T01:17:50.737Z,82.56
2022-10-22T01:20:21.733Z,82.47
2022-10-22T01:23:05.133Z,82.36
2022-10-22T01:25:45.441Z,82.34
2022-10-22T01:28:39.337Z,82.48
2022-10-22T01:31:09.426Z,82.67
2022-10-22T01:33:39.310Z,82.67
2022-10-22T01:36:08.241Z,82.72
2022-10-22T01:38:37.621Z,82.82
2022-10-22T01:41:06.825Z,83.06
2022-10-22T01:43:34.890Z,83.10
2022-10-22T01:46:05.940Z,83.12
2022-10-22T01:49:04.979Z,83.13
2022-10-22T01:51:56.950Z,83.26
2022-10-22T01:54:50.753Z,83.32
2022-10-22T01:57:21.483Z,83.38
2022-10-22T01:59:53.278Z,83.35
2022-10-22T02:03:08.907Z,83.31
2022-10-22T02:05:44.487Z,83.34
2022-10-22T02:08:18.208Z,83.37
2022-10-22T02:10:48.203Z,83.34
2022-10-22T02:13:20.734Z,83.16
2022-10-22T02:15:51.732Z,83.20
2022-10-22T02:18:22.963Z,83.09
2022-10-22T02:20:50.869Z,83.05
2022-10-22T02:23:20.494Z,83.08
2022-10-22T02:25:54.372Z,83.02
2022-10-22T02:28:47.408Z,82.81
2022-10-22T02:31:22.864Z,82.78
2022-10-22T02:33:55.989Z,82.62
2022-10-22T02:36:25.153Z,82.67
2022-10-22T02:38:54.342Z,82.61
2022-10-22T02:41:23.628Z,82.53
2022-10-22T02:43:55.743Z,82.58
2022-10-22T02:46:25.796Z,82.48
2022-10-22T02:48:53.954Z,82.43
2022-10-22T02:51:21.917Z,82.31
2022-10-22T02:53:49.998Z,82.18
2022-10-22T02:56:18.089Z,82.29
2022-10-22T02:58:46.093Z,82.28
2022-10-22T03:01:16.147Z,82.14
2022-10-22T03:03:44.446Z,82.26
2022-10-22T03:06:12.748Z,82.26
2022-10-22T03:08:41.342Z,82.15
2022-10-22T03:11:09.985Z,82.30
2022-10-22T03:13:38.218Z,82.25
2022-10-22T03:16:06.528Z,81.95
2022-10-22T03:18:35.187Z,81.92
2022-10-22T03:21:13.532Z,81.81
2022-10-22T03:23:42.980Z,81.70
2022-10-22T03:26:14.042Z,81.83
2022-10-22T03:28:42.785Z,81.78
2022-10-22T03:31:10.969Z,81.59
2022-10-22T03:33:38.883Z,81.53
2022-10-22T03:36:08.463Z,81.46
2022-10-22T03:38:38.689Z,81.58
2022-10-22T03:41:07.075Z,81.50
2022-10-22T03:43:37.423Z,81.47
2022-10-22T03:46:05.691Z,81.38
2022-10-22T03:48:33.619Z,81.20
2022-10-22T03:51:02.413Z,81.19
2022-10-22T03:53:30.426Z,81.14
2022-10-22T03:55:58.389Z,81.20
2022-10-22T03:58:26.648Z,81.07
2022-10-22T04:00:54.861Z,81.11
2022-10-22T04:03:22.919Z,80.97
2022-10-22T04:05:51.014Z,80.82
2022-10-22T04:08:19.268Z,81.07
2022-10-22T04:10:53.481Z,80.76
2022-10-22T04:13:21.576Z,80.96
2022-10-22T04:15:49.519Z,80.83
2022-10-22T04:18:19.295Z,80.75
2022-10-22T04:20:47.865Z,80.73
2022-10-22T04:23:15.796Z,80.82
2022-10-22T04:25:43.782Z,80.89
2022-10-22T04:28:11.805Z,80.82
2022-10-22T04:30:39.815Z,80.74
2022-10-22T04:33:07.863Z,80.70
2022-10-22T04:35:38.853Z,80.84
2022-10-22T04:38:06.806Z,80.81
2022-10-22T04:40:34.827Z,80.87
2022-10-22T04:43:02.989Z,80.93
2022-10-22T04:45:32.639Z,80.80
2022-10-22T04:48:00.848Z,80.56
2022-10-22T04:50:28.948Z,80.55
2022-10-22T04:52:57.011Z,80.61
2022-10-22T04:55:25.141Z,80.57
2022-10-22T04:57:53.183Z,80.56
2022-10-22T05:00:21.409Z,80.62
2022-10-22T05:02:50.363Z,80.48
2022-10-22T05:05:18.595Z,80.50
2022-10-22T05:07:46.513Z,80.58
2022-10-22T05:10:14.581Z,80.46
2022-10-22T05:12:42.793Z,80.59
2022-10-22T05:15:11.006Z,80.46
2022-10-22T05:17:39.408Z,80.59
2022-10-22T05:20:08.551Z,80.53
2022-10-22T05:22:36.534Z,80.49
2022-10-22T05:25:04.871Z,80.49
2022-10-22T05:27:33.062Z,80.63
2022-10-22T05:30:01.105Z,80.63
2022-10-22T05:32:29.151Z,80.60
2022-10-22T05:34:57.293Z,80.76
2022-10-22T05:37:25.231Z,80.68
2022-10-22T05:40:01.804Z,80.52
2022-10-22T05:42:41.343Z,80.65
2022-10-22T05:45:09.886Z,80.55
2022-10-22T05:47:37.808Z,80.71
2022-10-22T05:50:06.438Z,80.44
2022-10-22T05:52:34.597Z,80.43
2022-10-22T05:55:02.568Z,80.57
2022-10-22T05:57:30.729Z,80.68
2022-10-22T05:59:58.839Z,80.56
2022-10-22T06:02:26.874Z,80.63
2022-10-22T06:04:55.193Z,80.54
2022-10-22T06:07:23.539Z,80.49
2022-10-22T06:09:53.771Z,80.57
2022-10-22T06:12:21.898Z,80.63
2022-10-22T06:14:50.041Z,80.67
2022-10-22T06:17:19.665Z,80.80
2022-10-22T06:19:47.659Z,80.57
2022-10-22T06:22:15.740Z,80.51
2022-10-22T06:24:45.143Z,80.83
2022-10-22T06:27:13.460Z,80.80
2022-10-22T06:29:41.532Z,80.74
2022-10-22T06:32:09.470Z,81.13
2022-10-22T06:34:37.629Z,80.92
2022-10-22T06:37:05.985Z,81.13
2022-10-22T06:39:33.982Z,81.34
2022-10-22T06:42:02.216Z,81.29
2022-10-22T06:44:35.575Z,81.01
2022-10-22T06:47:03.577Z,81.16
2022-10-22T06:49:31.681Z,81.21
2022-10-22T06:51:59.880Z,81.06
2022-10-22T06:54:28.040Z,81.02
2022-10-22T06:56:55.965Z,81.17
2022-10-22T06:59:23.912Z,80.95
2022-10-22T07:01:52.207Z,80.79
2022-10-22T07:04:20.278Z,80.67
2022-10-22T07:06:48.342Z,80.66
2022-10-22T07:11:49.646Z,80.54
2022-10-22T07:14:17.759Z,80.40
2022-10-22T07:16:46.920Z,80.56
2022-10-22T07:19:14.998Z,80.53
2022-10-22T07:21:42.945Z,80.64
2022-10-22T07:24:10.891Z,80.58
2022-10-22T07:26:39.115Z,80.46
2022-10-22T07:29:07.376Z,80.45
2022-10-22T07:31:35.344Z,80.57
2022-10-22T07:34:03.473Z,80.61
2022-10-22T07:36:31.672Z,80.50
2022-10-22T07:39:00.632Z,80.30
2022-10-22T07:41:29.992Z,80.21
2022-10-22T07:43:58.719Z,80.30
2022-10-22T07:46:27.416Z,80.46
2022-10-22T07:48:55.682Z,79.98
2022-10-22T07:51:23.922Z,80.15
2022-10-22T07:53:51.930Z,80.26
2022-10-22T07:56:20.051Z,79.80
2022-10-22T07:58:48.328Z,79.90
2022-10-22T08:01:16.448Z,79.94
2022-10-22T08:03:44.717Z,79.91
2022-10-22T08:06:13.679Z,80.09
2022-10-22T08:08:43.602Z,79.94
2022-10-22T08:11:12.228Z,79.97
2022-10-22T08:13:44.888Z,80.29
2022-10-22T08:16:14.514Z,80.11
2022-10-22T08:18:42.672Z,80.13
2022-10-22T08:21:12.353Z,80.12
2022-10-22T08:23:40.523Z,80.09
2022-10-22T08:26:08.924Z,80.17
2022-10-22T08:28:37.387Z,79.88
2022-10-22T08:31:07.877Z,79.84
2022-10-22T08:33:36.816Z,79.78
2022-10-22T08:36:05.447Z,79.63
2022-10-22T08:38:35.242Z,79.64
2022-10-22T08:41:09.998Z,79.64
2022-10-22T08:44:06.719Z,79.57
2022-10-22T08:46:43.942Z,79.48
2022-10-22T08:49:19.245Z,79.73
2022-10-22T08:51:47.603Z,79.74
2022-10-22T08:54:50.658Z,79.84
2022-10-22T08:57:40.549Z,79.64
2022-10-22T09:00:30.103Z,79.67
2022-10-22T09:03:08.205Z,79.01
2022-10-22T09:05:45.072Z,79.10
2022-10-22T09:08:15.203Z,79.29
2022-10-22T09:10:53.533Z,79.23
2022-10-22T09:13:23.557Z,79.27
2022-10-22T09:15:56.917Z,79.49
2022-10-22T09:18:37.347Z,79.76
2022-10-22T09:21:31.430Z,79.89
2022-10-22T09:24:13.229Z,79.94
2022-10-22T09:26:42.119Z,79.85
2022-10-22T09:29:19.475Z,79.82
2022-10-22T09:31:47.595Z,79.74
2022-10-22T09:34:20.617Z,79.47
2022-10-22T09:36:57.744Z,79.58
2022-10-22T09:39:33.785Z,79.68
2022-10-22T09:42:01.808Z,79.45
2022-10-22T09:44:34.011Z,80.08
2022-10-22T09:47:06.887Z,79.81
2022-10-22T09:49:36.496Z,79.81
2022-10-22T09:52:34.441Z,79.95
2022-10-22T09:55:12.739Z,79.82
2022-10-22T09:57:42.333Z,79.76
2022-10-22T10:00:18.092Z,79.56
2022-10-22T10:02:46.223Z,79.36
2022-10-22T10:05:25.105Z,79.35
2022-10-22T10:07:53.128Z,79.30
2022-10-22T10:10:39.184Z,79.10
2022-10-22T10:13:22.428Z,79.18
2022-10-22T10:16:05.861Z,79.35
2022-10-22T10:18:58.813Z,79.45
2022-10-22T10:21:35.116Z,79.74
2022-10-22T10:24:40.150Z,79.68
2022-10-22T10:27:29.176Z,79.57
2022-10-22T10:29:57.105Z,79.50
2022-10-22T10:32:36.097Z,79.46
2022-10-22T10:35:16.295Z,79.46
2022-10-22T10:40:38.217Z,79.54
2022-10-22T10:43:15.583Z,79.47
2022-10-22T10:46:14.829Z,79.46
2022-10-22T10:48:56.729Z,79.43
2022-10-22T10:51:43.766Z,79.62
2022-10-22T10:54:45.916Z,79.68
2022-10-22T10:57:49.195Z,79.31
2022-10-22T11:00:20.151Z,79.35
2022-10-22T11:03:21.787Z,79.12
2022-10-22T11:06:00.521Z,79.42
2022-10-22T11:08:36.078Z,79.41
2022-10-22T11:11:34.712Z,79.31
2022-10-22T11:14:23.444Z,79.17
2022-10-22T11:17:19.275Z,79.56
2022-10-22T11:19:59.940Z,79.42
2022-10-22T11:23:19.925Z,79.61
2022-10-22T11:25:50.577Z,80.06
2022-10-22T11:28:27.703Z,80.11
2022-10-22T11:31:03.369Z,80.20
2022-10-22T11:33:45.679Z,80.09
2022-10-22T11:36:14.477Z,80.39
2022-10-22T11:38:42.719Z,80.38
2022-10-22T11:41:18.534Z,80.41
2022-10-22T11:44:09.603Z,80.15
2022-10-22T11:46:43.735Z,80.09
2022-10-22T11:49:14.734Z,79.86
2022-10-22T11:51:43.527Z,80.10
2022-10-22T11:54:31.824Z,80.23
2022-10-22T11:57:15.021Z,80.39
2022-10-22T11:59:56.895Z,80.77
2022-10-22T12:02:44.623Z,80.54
2022-10-22T12:05:25.022Z,80.49
2022-10-22T12:07:53.000Z,80.18
2022-10-22T12:10:34.051Z,80.51
2022-10-22T12:13:21.056Z,80.81
2022-10-22T12:15:53.098Z,80.77
2022-10-22T12:18:25.538Z,80.55
2022-10-22T12:20:54.624Z,80.58
2022-10-22T12:23:30.821Z,80.86
2022-10-22T12:25:59.132Z,80.62
2022-10-22T12:28:27.140Z,80.79
2022-10-22T12:30:59.362Z,80.77
2022-10-22T12:33:32.705Z,80.90
2022-10-22T12:36:04.322Z,80.88
2022-10-22T12:38:32.243Z,80.71
2022-10-22T12:41:00.274Z,80.59
2022-10-22T12:43:30.619Z,80.86
2022-10-22T12:45:59.822Z,80.78
2022-10-22T12:48:33.664Z,80.91
2022-10-22T12:51:04.129Z,81.20
2022-10-22T12:53:37.739Z,81.09
2022-10-22T12:56:11.952Z,81.02
2022-10-22T12:58:43.853Z,81.11
2022-10-22T13:01:15.507Z,80.72
2022-10-22T13:03:47.248Z,80.73
2022-10-22T13:06:25.071Z,80.64
2022-10-22T13:09:07.715Z,80.73
2022-10-22T13:11:58.342Z,81.01
2022-10-22T13:14:26.230Z,80.84
2022-10-22T13:17:09.528Z,80.97
2022-10-22T13:19:48.941Z,80.86
2022-10-22T13:22:29.876Z,81.08
2022-10-22T13:25:19.033Z,81.16
2022-10-22T13:27:50.358Z,80.84
2022-10-22T13:30:38.052Z,80.80
2022-10-22T13:33:40.319Z,81.01
2022-10-22T13:36:12.950Z,80.85
2022-10-22T13:38:41.418Z,80.98
2022-10-22T13:41:27.366Z,80.84
2022-10-22T13:43:55.849Z,81.17
2022-10-22T13:46:25.689Z,81.12
2022-10-22T13:48:56.308Z,81.19
2022-10-22T13:51:34.988Z,81.02
2022-10-22T13:54:06.984Z,81.59
2022-10-22T13:56:35.139Z,81.58
2022-10-22T13:59:03.126Z,81.47
2022-10-22T14:01:31.372Z,81.52
2022-10-22T14:04:02.093Z,81.75
2022-10-22T14:06:31.756Z,81.84
2022-10-22T14:09:03.930Z,81.68
2022-10-22T14:11:32.771Z,81.75
2022-10-22T14:14:03.599Z,81.83
2022-10-22T14:16:33.277Z,81.74
2022-10-22T14:19:02.289Z,81.67
2022-10-22T14:21:35.474Z,81.86
2022-10-22T14:24:05.969Z,81.94
2022-10-22T14:26:36.267Z,81.98
2022-10-22T14:29:12.060Z,81.99
2022-10-22T14:31:42.658Z,82.06
2022-10-22T14:34:12.087Z,82.33
2022-10-22T14:36:40.135Z,82.60
2022-10-22T14:39:08.234Z,82.81
2022-10-22T14:41:36.773Z,82.89
2022-10-22T14:44:05.352Z,82.99
2022-10-22T14:46:33.867Z,83.18
2022-10-22T14:49:02.871Z,83.30
2022-10-22T14:51:30.853Z,83.40
2022-10-22T14:53:59.064Z,83.53
2022-10-22T14:56:27.042Z,83.78
2022-10-22T14:58:55.147Z,83.76
2022-10-22T15:01:23.304Z,84.00
2022-10-22T15:03:51.360Z,84.15
2022-10-22T15:06:19.267Z,84.51
2022-10-22T15:08:47.287Z,84.48
2022-10-22T15:11:15.481Z,84.40
2022-10-22T15:13:43.717Z,84.62
2022-10-22T15:16:14.818Z,84.69
2022-10-22T15:18:42.858Z,84.77
2022-10-22T15:21:23.044Z,84.58
2022-10-22T15:23:51.061Z,84.87
2022-10-22T15:26:19.333Z,85.15
2022-10-22T15:28:47.338Z,85.42
2022-10-22T15:31:15.770Z,85.59
2022-10-22T15:33:43.945Z,85.49
2022-10-22T15:36:16.455Z,85.91
2022-10-22T15:38:44.711Z,85.97
2022-10-22T15:41:13.476Z,85.97
2022-10-22T15:43:42.106Z,86.14
2022-10-22T15:46:13.603Z,86.10
2022-10-22T15:48:42.166Z,86.18
2022-10-22T15:51:15.724Z,86.31
2022-10-22T15:53:44.401Z,86.42
2022-10-22T15:56:12.527Z,86.48
2022-10-22T15:58:40.643Z,86.45
2022-10-22T16:01:12.206Z,86.70
2022-10-22T16:03:40.980Z,86.69
2022-10-22T16:06:09.545Z,86.77
2022-10-22T16:08:38.756Z,86.96
2022-10-22T16:11:06.825Z,86.99
2022-10-22T16:13:37.182Z,86.89
2022-10-22T16:16:08.098Z,87.17
2022-10-22T16:18:36.365Z,87.31
2022-10-22T16:21:04.734Z,87.53
2022-10-22T16:23:34.150Z,87.50
2022-10-22T16:26:02.595Z,87.41
2022-10-22T16:28:30.758Z,87.62
2022-10-22T16:31:04.861Z,87.69
2022-10-22T16:33:41.460Z,87.73
2022-10-22T16:36:17.965Z,87.74
2022-10-22T16:38:47.587Z,87.96
2022-10-22T16:41:19.539Z,87.97
2022-10-22T16:43:51.467Z,87.87
2022-10-22T16:46:20.912Z,88.22
2022-10-22T16:48:51.394Z,88.30
2022-10-22T16:51:25.265Z,88.51
2022-10-22T16:53:55.156Z,88.56
2022-10-22T16:56:24.574Z,88.49
2022-10-22T16:58:55.364Z,88.54
2022-10-22T17:01:29.763Z,88.82
2022-10-22T17:04:01.684Z,88.79
2022-10-22T17:06:29.887Z,88.92
2022-10-22T17:08:57.892Z,89.30
2022-10-22T17:11:26.315Z,89.29
2022-10-22T17:13:54.972Z,89.34
2022-10-22T17:16:24.663Z,89.55
2022-10-22T17:18:56.424Z,89.53
2022-10-22T17:21:24.782Z,89.68
2022-10-22T17:23:57.087Z,89.64
2022-10-22T17:26:27.031Z,89.77
2022-10-22T17:28:55.612Z,89.85
2022-10-22T17:31:26.361Z,89.96
2022-10-22T17:33:55.954Z,90.14
2022-10-22T17:36:25.544Z,90.13
2022-10-22T17:38:56.933Z,90.53
2022-10-22T17:41:30.969Z,90.33
2022-10-22T17:44:01.908Z,90.48
2022-10-22T17:46:31.219Z,90.36
2022-10-22T17:49:03.283Z,90.68
2022-10-22T17:51:31.750Z,90.77
2022-10-22T17:54:00.031Z,90.67
2022-10-22T17:56:32.998Z,90.76
2022-10-22T17:59:01.933Z,90.64
2022-10-22T18:01:33.013Z,90.73
2022-10-22T18:04:03.858Z,90.70
2022-10-22T18:06:32.927Z,90.86
2022-10-22T18:09:05.650Z,90.93
2022-10-22T18:11:36.135Z,91.02
2022-10-22T18:14:05.232Z,90.98
2022-10-22T18:16:33.187Z,91.21
2022-10-22T18:19:01.893Z,91.30
2022-10-22T18:21:30.498Z,91.35
2022-10-22T18:23:59.579Z,91.32
2022-10-22T18:26:27.765Z,91.34
2022-10-22T18:28:58.296Z,91.32
2022-10-22T18:31:30.652Z,91.51
2022-10-22T18:33:59.601Z,91.60
2022-10-22T18:36:28.442Z,91.73
2022-10-22T18:38:59.541Z,91.57
2022-10-22T18:41:29.136Z,91.94
2022-10-22T18:44:03.807Z,92.05
2022-10-22T18:46:39.154Z,92.12
2022-10-22T18:49:07.751Z,92.44
2022-10-22T18:51:36.393Z,92.30
2022-10-22T18:54:11.272Z,92.37
2022-10-22T18:56:47.518Z,92.61
2022-10-22T18:59:19.884Z,92.77
2022-10-22T19:01:48.854Z,92.83
2022-10-22T19:04:16.864Z,92.99
2022-10-22T19:06:45.954Z,93.36
2022-10-22T19:09:15.482Z,93.25
2022-10-22T19:11:44.951Z,93.42
2022-10-22T19:14:14.142Z,93.32
2022-10-22T19:16:42.344Z,93.41
2022-10-22T19:19:11.364Z,93.49
2022-10-22T19:21:39.341Z,93.42
2022-10-22T19:24:07.613Z,93.56
2022-10-22T19:26:35.680Z,93.40
2022-10-22T19:29:04.373Z,93.46
2022-10-22T19:31:32.700Z,93.53
2022-10-22T19:34:02.259Z,93.43
2022-10-22T19:36:32.585Z,93.52
2022-10-22T19:39:01.839Z,93.79
2022-10-22T19:41:31.426Z,93.89
2022-10-22T19:44:00.573Z,93.88
2022-10-22T19:46:31.803Z,93.94
2022-10-22T19:49:01.776Z,94.02
2022-10-22T19:51:31.007Z,94.12
2022-10-22T19:54:00.850Z,94.40
2022-10-22T19:56:29.389Z,94.44
2022-10-22T19:58:57.806Z,94.38
2022-10-22T20:01:26.929Z,94.44
2022-10-22T20:03:55.400Z,94.34
2022-10-22T20:06:24.481Z,94.34
2022-10-22T20:08:55.961Z,94.34
2022-10-22T20:11:27.884Z,94.41
2022-10-22T20:13:56.899Z,94.53
2022-10-22T20:16:28.559Z,94.87
2022-10-22T20:19:01.343Z,94.87
2022-10-22T20:21:30.555Z,95.12
2022-10-22T20:23:59.443Z,95.05
2022-10-22T20:26:28.677Z,95.02
2022-10-22T20:28:58.132Z,94.99
2022-10-22T20:31:28.694Z,94.90
2022-10-22T20:33:58.539Z,94.82
2022-10-22T20:36:27.767Z,94.90
2022-10-22T20:39:03.644Z,94.85
2022-10-22T20:41:34.003Z,94.97
2022-10-22T20:44:02.096Z,94.94
2022-10-22T20:46:32.516Z,95.09
2022-10-22T20:49:04.384Z,95.22
2022-10-22T20:51:32.727Z,95.38
2022-10-22T20:54:00.851Z,95.37
2022-10-22T20:56:28.983Z,95.30
2022-10-22T20:59:04.972Z,95.11
2022-10-22T21:01:37.160Z,95.21
2022-10-22T21:04:06.139Z,95.14
2022-10-22T21:06:38.173Z,95.10
2022-10-22T21:09:11.093Z,95.15
2022-10-22T21:11:40.275Z,95.15
2022-10-22T21:14:10.504Z,95.20
2022-10-22T21:16:43.397Z,95.36
2022-10-22T21:19:12.284Z,95.08
2022-10-22T21:21:40.613Z,95.07
2022-10-22T21:24:08.928Z,95.17
2022-10-22T21:26:41.611Z,95.37
2022-10-22T21:29:11.013Z,95.45
2022-10-22T21:31:40.443Z,95.38
2022-10-22T21:34:08.692Z,95.39
2022-10-22T21:36:36.678Z,95.70
2022-10-22T21:39:04.821Z,95.49
2022-10-22T21:41:33.341Z,95.51
2022-10-22T21:44:01.333Z,95.77
2022-10-22T21:46:29.775Z,95.77
2022-10-22T21:49:01.479Z,95.77
2022-10-22T21:51:31.986Z,95.87
2022-10-22T21:54:00.425Z,95.92
2022-10-22T21:56:32.764Z,96.07
2022-10-22T21:59:02.344Z,95.99
2022-10-22T22:01:30.452Z,95.95
2022-10-22T22:03:59.396Z,95.80
2022-10-22T22:06:30.852Z,95.76
2022-10-22T22:09:04.353Z,95.93
2022-10-22T22:11:33.014Z,96.04
2022-10-22T22:14:01.023Z,96.14
2022-10-22T22:16:32.024Z,96.06
2022-10-22T22:21:33.261Z,95.95
2022-10-22T22:24:01.380Z,95.99
2022-10-22T22:26:30.186Z,96.29
2022-10-22T22:28:59.644Z,96.22
2022-10-22T22:31:33.295Z,96.21
2022-10-22T22:34:08.204Z,96.49
2022-10-22T22:36:40.225Z,96.33
2022-10-22T22:39:17.465Z,96.43
2022-10-22T22:41:46.685Z,96.48
2022-10-22T22:44:15.139Z,96.71
2022-10-22T22:46:43.502Z,96.66
2022-10-22T22:49:13.066Z,96.66
2022-10-22T22:51:42.047Z,96.68
2022-10-22T22:54:11.500Z,96.73
2022-10-22T22:56:39.907Z,96.75
2022-10-22T22:59:07.840Z,96.73
2022-10-22T23:01:38.639Z,96.71
2022-10-22T23:04:18.996Z,96.76
2022-10-22T23:06:47.143Z,96.75
2022-10-22T23:09:16.548Z,96.73
2022-10-22T23:11:45.979Z,96.71
2022-10-22T23:14:15.930Z,96.69
2022-10-22T23:16:47.446Z,96.56
2022-10-22T23:19:18.695Z,96.39
2022-10-22T23:21:52.899Z,96.62
2022-10-22T23:24:24.495Z,96.44
2022-10-22T23:26:54.672Z,96.43
2022-10-22T23:29:28.505Z,96.37
2022-10-22T23:32:01.284Z,96.49
2022-10-22T23:34:30.935Z,96.25
2022-10-22T23:36:59.726Z,96.15
2022-10-22T23:39:29.345Z,96.21
2022-10-22T23:41:58.409Z,96.13
2022-10-22T23:44:26.613Z,96.07
2022-10-22T23:46:55.255Z,96.20
2022-10-22T23:49:23.476Z,95.90
2022-10-22T23:51:51.799Z,95.80
2022-10-22T23:54:19.947Z,95.87
2022-10-22T23:56:48.233Z,96.05
2022-10-22T23:59:16.606Z,95.91
